METAR Data
IDs: Format: Raw Decoded Include TAF

Data at: 0240 UTC 29 Nov 2020

METAR for:EBFS (Florennes(AB), WN, BX)
Text:EBFS 290225Z AUTO 03004KT 0050 FG OVC002/// 01/01 Q1021 RED
Temperature: 1.0°C ( 34°F)
Dewpoint: 1.0°C ( 34°F) [RH = 100%]
Pressure (altimeter):30.15 inches Hg (1021.0 mb)
Winds:from the NNE (30 degrees) at 5 MPH (4 knots; 2.1 m/s)
Visibility: 0.03 sm ( 0.05 km)
Ceiling:200 feet AGL
Clouds: overcast cloud deck at 200 feet AGL
Weather:FG (fog)

TAF for:EBFS (Florennes(AB), WN, BX)
Text:No data found